sensor_id;sensor_type;location;lat;lon;timestamp;P1;durP1;ratioP1;P2;durP2;ratioP2
78430;SDS011;67727;50.236;22.452;2024-03-22T00:02:10;47.40;;;23.40;;
78430;SDS011;67727;50.236;22.452;2024-03-22T00:04:36;41.80;;;22.60;;
78430;SDS011;67727;50.236;22.452;2024-03-22T00:07:04;40.30;;;21.80;;
78430;SDS011;67727;50.236;22.452;2024-03-22T00:09:30;46.30;;;24.30;;
78430;SDS011;67727;50.236;22.452;2024-03-22T00:11:57;42.20;;;23.80;;
78430;SDS011;67727;50.236;22.452;2024-03-22T00:14:24;47.40;;;22.90;;
78430;SDS011;67727;50.236;22.452;2024-03-22T00:16:51;49.20;;;25.10;;
78430;SDS011;67727;50.236;22.452;2024-03-22T00:19:18;51.30;;;24.50;;
78430;SDS011;67727;50.236;22.452;2024-03-22T00:21:45;45.30;;;24.10;;
78430;SDS011;67727;50.236;22.452;2024-03-22T00:24:11;44.80;;;21.30;;
78430;SDS011;67727;50.236;22.452;2024-03-22T00:26:38;51.10;;;22.50;;
78430;SDS011;67727;50.236;22.452;2024-03-22T00:29:05;48.10;;;23.40;;
78430;SDS011;67727;50.236;22.452;2024-03-22T00:31:32;45.80;;;23.60;;
78430;SDS011;67727;50.236;22.452;2024-03-22T00:33:59;47.30;;;24.70;;
78430;SDS011;67727;50.236;22.452;2024-03-22T00:36:26;43.80;;;26.10;;
78430;SDS011;67727;50.236;22.452;2024-03-22T00:38:53;44.90;;;23.20;;
78430;SDS011;67727;50.236;22.452;2024-03-22T00:41:20;45.30;;;23.50;;
78430;SDS011;67727;50.236;22.452;2024-03-22T00:43:46;50.00;;;23.50;;
78430;SDS011;67727;50.236;22.452;2024-03-22T00:46:13;50.60;;;26.10;;
78430;SDS011;67727;50.236;22.452;2024-03-22T00:48:40;54.50;;;27.40;;
78430;SDS011;67727;50.236;22.452;2024-03-22T00:51:07;53.50;;;26.20;;
78430;SDS011;67727;50.236;22.452;2024-03-22T00:53:33;47.10;;;25.50;;
78430;SDS011;67727;50.236;22.452;2024-03-22T00:56:00;56.70;;;25.90;;
78430;SDS011;67727;50.236;22.452;2024-03-22T00:58:27;49.80;;;24.60;;
78430;SDS011;67727;50.236;22.452;2024-03-22T01:00:54;50.40;;;25.00;;
78430;SDS011;67727;50.236;22.452;2024-03-22T01:03:22;51.80;;;26.00;;
78430;SDS011;67727;50.236;22.452;2024-03-22T01:05:49;51.00;;;25.50;;
78430;SDS011;67727;50.236;22.452;2024-03-22T01:08:16;53.80;;;26.50;;
78430;SDS011;67727;50.236;22.452;2024-03-22T01:10:43;48.40;;;26.70;;
78430;SDS011;67727;50.236;22.452;2024-03-22T01:13:10;47.90;;;25.30;;
78430;SDS011;67727;50.236;22.452;2024-03-22T01:15:36;55.00;;;27.20;;
78430;SDS011;67727;50.236;22.452;2024-03-22T01:18:03;53.60;;;28.50;;
78430;SDS011;67727;50.236;22.452;2024-03-22T01:20:30;53.40;;;28.20;;
78430;SDS011;67727;50.236;22.452;2024-03-22T01:22:59;49.60;;;27.50;;
78430;SDS011;67727;50.236;22.452;2024-03-22T01:25:27;48.40;;;26.80;;
78430;SDS011;67727;50.236;22.452;2024-03-22T01:27:55;46.40;;;24.50;;
78430;SDS011;67727;50.236;22.452;2024-03-22T01:30:22;50.50;;;26.10;;
78430;SDS011;67727;50.236;22.452;2024-03-22T01:32:49;52.00;;;27.40;;
78430;SDS011;67727;50.236;22.452;2024-03-22T01:35:16;44.70;;;22.40;;
78430;SDS011;67727;50.236;22.452;2024-03-22T01:37:43;43.40;;;22.60;;
78430;SDS011;67727;50.236;22.452;2024-03-22T01:40:10;59.00;;;24.70;;
78430;SDS011;67727;50.236;22.452;2024-03-22T01:45:04;42.80;;;20.50;;
78430;SDS011;67727;50.236;22.452;2024-03-22T01:49:59;43.10;;;21.10;;
78430;SDS011;67727;50.236;22.452;2024-03-22T01:52:27;46.50;;;22.30;;
78430;SDS011;67727;50.236;22.452;2024-03-22T01:54:54;41.80;;;23.70;;
78430;SDS011;67727;50.236;22.452;2024-03-22T01:57:21;50.30;;;23.80;;
78430;SDS011;67727;50.236;22.452;2024-03-22T01:59:48;41.70;;;23.00;;
78430;SDS011;67727;50.236;22.452;2024-03-22T02:02:17;44.50;;;24.50;;
78430;SDS011;67727;50.236;22.452;2024-03-22T02:04:44;46.20;;;22.40;;
78430;SDS011;67727;50.236;22.452;2024-03-22T02:07:11;44.80;;;23.40;;
78430;SDS011;67727;50.236;22.452;2024-03-22T02:09:38;44.60;;;23.10;;
78430;SDS011;67727;50.236;22.452;2024-03-22T02:12:05;43.80;;;22.70;;
78430;SDS011;67727;50.236;22.452;2024-03-22T02:14:32;47.40;;;24.70;;
78430;SDS011;67727;50.236;22.452;2024-03-22T02:16:59;47.30;;;22.90;;
78430;SDS011;67727;50.236;22.452;2024-03-22T02:19:26;48.10;;;24.40;;
78430;SDS011;67727;50.236;22.452;2024-03-22T02:21:52;40.60;;;23.00;;
78430;SDS011;67727;50.236;22.452;2024-03-22T02:24:19;43.70;;;22.60;;
78430;SDS011;67727;50.236;22.452;2024-03-22T02:26:46;48.20;;;22.00;;
78430;SDS011;67727;50.236;22.452;2024-03-22T02:29:13;43.00;;;22.90;;
78430;SDS011;67727;50.236;22.452;2024-03-22T02:31:40;47.60;;;22.10;;
78430;SDS011;67727;50.236;22.452;2024-03-22T02:34:07;44.10;;;24.60;;
78430;SDS011;67727;50.236;22.452;2024-03-22T02:36:34;44.70;;;24.40;;
78430;SDS011;67727;50.236;22.452;2024-03-22T02:39:00;37.90;;;22.70;;
78430;SDS011;67727;50.236;22.452;2024-03-22T02:41:27;41.40;;;21.10;;
78430;SDS011;67727;50.236;22.452;2024-03-22T02:43:54;43.50;;;22.30;;
78430;SDS011;67727;50.236;22.452;2024-03-22T02:46:21;42.10;;;22.50;;
78430;SDS011;67727;50.236;22.452;2024-03-22T02:48:48;47.10;;;23.10;;
78430;SDS011;67727;50.236;22.452;2024-03-22T02:51:15;45.70;;;23.60;;
78430;SDS011;67727;50.236;22.452;2024-03-22T02:53:41;44.90;;;22.40;;
78430;SDS011;67727;50.236;22.452;2024-03-22T02:56:08;53.60;;;25.20;;
78430;SDS011;67727;50.236;22.452;2024-03-22T02:58:35;44.20;;;23.20;;
78430;SDS011;67727;50.236;22.452;2024-03-22T03:01:03;41.90;;;23.00;;
78430;SDS011;67727;50.236;22.452;2024-03-22T03:03:30;43.70;;;22.40;;
78430;SDS011;67727;50.236;22.452;2024-03-22T03:05:56;51.00;;;23.70;;
78430;SDS011;67727;50.236;22.452;2024-03-22T03:08:23;41.00;;;23.00;;
78430;SDS011;67727;50.236;22.452;2024-03-22T03:10:50;45.00;;;23.40;;
78430;SDS011;67727;50.236;22.452;2024-03-22T03:13:17;44.70;;;23.70;;
78430;SDS011;67727;50.236;22.452;2024-03-22T03:15:44;45.20;;;23.10;;
78430;SDS011;67727;50.236;22.452;2024-03-22T03:18:10;41.90;;;22.70;;
78430;SDS011;67727;50.236;22.452;2024-03-22T03:20:37;45.60;;;23.40;;
78430;SDS011;67727;50.236;22.452;2024-03-22T03:23:04;60.00;;;34.20;;
78430;SDS011;67727;50.236;22.452;2024-03-22T03:25:31;55.60;;;34.40;;
78430;SDS011;67727;50.236;22.452;2024-03-22T03:27:58;49.30;;;26.50;;
78430;SDS011;67727;50.236;22.452;2024-03-22T03:30:25;43.50;;;23.30;;
78430;SDS011;67727;50.236;22.452;2024-03-22T03:32:52;51.90;;;32.30;;
78430;SDS011;67727;50.236;22.452;2024-03-22T03:35:19;53.50;;;29.40;;
78430;SDS011;67727;50.236;22.452;2024-03-22T03:37:46;45.10;;;26.40;;
78430;SDS011;67727;50.236;22.452;2024-03-22T03:40:13;51.30;;;26.00;;
78430;SDS011;67727;50.236;22.452;2024-03-22T03:42:39;48.40;;;28.00;;
78430;SDS011;67727;50.236;22.452;2024-03-22T03:45:07;46.00;;;24.50;;
78430;SDS011;67727;50.236;22.452;2024-03-22T03:47:33;42.70;;;24.00;;
78430;SDS011;67727;50.236;22.452;2024-03-22T03:50:00;48.70;;;24.50;;
78430;SDS011;67727;50.236;22.452;2024-03-22T03:52:27;46.40;;;23.50;;
78430;SDS011;67727;50.236;22.452;2024-03-22T03:54:54;50.70;;;25.80;;
78430;SDS011;67727;50.236;22.452;2024-03-22T03:57:20;50.20;;;25.30;;
78430;SDS011;67727;50.236;22.452;2024-03-22T03:59:47;45.30;;;23.20;;
78430;SDS011;67727;50.236;22.452;2024-03-22T04:02:14;46.40;;;25.40;;
78430;SDS011;67727;50.236;22.452;2024-03-22T04:04:41;46.10;;;23.50;;
78430;SDS011;67727;50.236;22.452;2024-03-22T04:07:08;41.70;;;23.40;;
78430;SDS011;67727;50.236;22.452;2024-03-22T04:09:35;48.50;;;26.00;;
78430;SDS011;67727;50.236;22.452;2024-03-22T04:12:01;47.50;;;27.20;;
78430;SDS011;67727;50.236;22.452;2024-03-22T04:14:28;45.00;;;24.80;;
78430;SDS011;67727;50.236;22.452;2024-03-22T04:16:55;49.50;;;24.40;;
78430;SDS011;67727;50.236;22.452;2024-03-22T04:19:22;47.80;;;23.80;;
78430;SDS011;67727;50.236;22.452;2024-03-22T04:21:49;53.10;;;26.90;;
78430;SDS011;67727;50.236;22.452;2024-03-22T04:24:17;43.70;;;24.80;;
78430;SDS011;67727;50.236;22.452;2024-03-22T04:26:43;47.50;;;24.50;;
78430;SDS011;67727;50.236;22.452;2024-03-22T04:29:10;46.90;;;24.50;;
78430;SDS011;67727;50.236;22.452;2024-03-22T04:31:37;45.00;;;23.70;;
78430;SDS011;67727;50.236;22.452;2024-03-22T04:34:04;45.10;;;23.70;;
78430;SDS011;67727;50.236;22.452;2024-03-22T04:36:34;43.70;;;23.30;;
78430;SDS011;67727;50.236;22.452;2024-03-22T04:39:01;46.70;;;25.10;;
78430;SDS011;67727;50.236;22.452;2024-03-22T04:41:28;45.40;;;24.10;;
78430;SDS011;67727;50.236;22.452;2024-03-22T04:43:54;46.90;;;25.30;;
78430;SDS011;67727;50.236;22.452;2024-03-22T04:46:21;47.50;;;25.50;;
78430;SDS011;67727;50.236;22.452;2024-03-22T04:48:48;45.80;;;24.80;;
78430;SDS011;67727;50.236;22.452;2024-03-22T04:51:15;48.90;;;25.60;;
78430;SDS011;67727;50.236;22.452;2024-03-22T04:53:42;43.90;;;24.40;;
78430;SDS011;67727;50.236;22.452;2024-03-22T04:56:10;49.80;;;25.00;;
78430;SDS011;67727;50.236;22.452;2024-03-22T04:58:37;45.00;;;24.90;;
78430;SDS011;67727;50.236;22.452;2024-03-22T05:01:03;46.60;;;27.00;;
78430;SDS011;67727;50.236;22.452;2024-03-22T05:03:30;48.20;;;26.70;;
78430;SDS011;67727;50.236;22.452;2024-03-22T05:05:57;47.40;;;25.60;;
78430;SDS011;67727;50.236;22.452;2024-03-22T05:08:24;52.50;;;27.10;;
78430;SDS011;67727;50.236;22.452;2024-03-22T05:10:52;50.40;;;26.70;;
78430;SDS011;67727;50.236;22.452;2024-03-22T05:13:19;55.00;;;26.90;;
78430;SDS011;67727;50.236;22.452;2024-03-22T05:15:46;50.50;;;26.60;;
78430;SDS011;67727;50.236;22.452;2024-03-22T05:18:13;51.30;;;26.40;;
78430;SDS011;67727;50.236;22.452;2024-03-22T05:20:39;47.90;;;29.00;;
78430;SDS011;67727;50.236;22.452;2024-03-22T05:23:06;63.30;;;33.80;;
78430;SDS011;67727;50.236;22.452;2024-03-22T05:25:33;63.00;;;37.80;;
78430;SDS011;67727;50.236;22.452;2024-03-22T05:27:59;59.30;;;34.50;;
78430;SDS011;67727;50.236;22.452;2024-03-22T05:30:27;58.00;;;29.20;;
78430;SDS011;67727;50.236;22.452;2024-03-22T05:32:53;51.40;;;28.20;;
78430;SDS011;67727;50.236;22.452;2024-03-22T05:35:20;49.10;;;29.80;;
78430;SDS011;67727;50.236;22.452;2024-03-22T05:37:47;52.80;;;29.90;;
78430;SDS011;67727;50.236;22.452;2024-03-22T05:40:17;52.70;;;27.10;;
78430;SDS011;67727;50.236;22.452;2024-03-22T05:42:44;57.10;;;29.60;;
78430;SDS011;67727;50.236;22.452;2024-03-22T05:45:10;57.00;;;31.60;;
78430;SDS011;67727;50.236;22.452;2024-03-22T05:47:37;59.90;;;31.30;;
78430;SDS011;67727;50.236;22.452;2024-03-22T05:50:04;70.40;;;33.90;;
78430;SDS011;67727;50.236;22.452;2024-03-22T05:52:34;65.30;;;33.60;;
78430;SDS011;67727;50.236;22.452;2024-03-22T05:55:01;63.60;;;35.50;;
78430;SDS011;67727;50.236;22.452;2024-03-22T05:57:28;82.70;;;42.30;;
78430;SDS011;67727;50.236;22.452;2024-03-22T05:59:56;80.40;;;44.60;;
78430;SDS011;67727;50.236;22.452;2024-03-22T06:02:23;74.60;;;38.60;;
78430;SDS011;67727;50.236;22.452;2024-03-22T06:04:50;58.60;;;34.20;;
78430;SDS011;67727;50.236;22.452;2024-03-22T06:07:17;57.90;;;31.00;;
78430;SDS011;67727;50.236;22.452;2024-03-22T06:09:44;52.70;;;30.50;;
78430;SDS011;67727;50.236;22.452;2024-03-22T06:12:14;62.40;;;34.40;;
78430;SDS011;67727;50.236;22.452;2024-03-22T06:14:42;58.60;;;32.50;;
78430;SDS011;67727;50.236;22.452;2024-03-22T06:17:09;62.10;;;34.00;;
78430;SDS011;67727;50.236;22.452;2024-03-22T06:19:37;59.50;;;33.20;;
78430;SDS011;67727;50.236;22.452;2024-03-22T06:22:04;53.40;;;31.40;;
78430;SDS011;67727;50.236;22.452;2024-03-22T06:24:31;50.70;;;28.60;;
78430;SDS011;67727;50.236;22.452;2024-03-22T06:26:58;52.80;;;30.10;;
78430;SDS011;67727;50.236;22.452;2024-03-22T06:29:25;51.20;;;28.50;;
78430;SDS011;67727;50.236;22.452;2024-03-22T06:31:52;52.90;;;28.60;;
78430;SDS011;67727;50.236;22.452;2024-03-22T06:34:19;55.20;;;29.20;;
78430;SDS011;67727;50.236;22.452;2024-03-22T06:36:46;58.60;;;32.70;;
78430;SDS011;67727;50.236;22.452;2024-03-22T06:39:13;52.20;;;29.30;;
78430;SDS011;67727;50.236;22.452;2024-03-22T06:41:41;57.40;;;30.20;;
78430;SDS011;67727;50.236;22.452;2024-03-22T06:44:08;50.30;;;28.20;;
78430;SDS011;67727;50.236;22.452;2024-03-22T06:46:39;59.00;;;31.30;;
78430;SDS011;67727;50.236;22.452;2024-03-22T06:49:06;58.10;;;30.90;;
78430;SDS011;67727;50.236;22.452;2024-03-22T06:51:32;52.90;;;31.10;;
78430;SDS011;67727;50.236;22.452;2024-03-22T06:53:59;66.10;;;35.00;;
78430;SDS011;67727;50.236;22.452;2024-03-22T06:56:26;65.90;;;34.90;;
78430;SDS011;67727;50.236;22.452;2024-03-22T06:58:53;64.90;;;31.70;;
78430;SDS011;67727;50.236;22.452;2024-03-22T07:01:20;53.00;;;30.30;;
78430;SDS011;67727;50.236;22.452;2024-03-22T07:03:47;55.30;;;28.80;;
78430;SDS011;67727;50.236;22.452;2024-03-22T07:06:14;56.40;;;28.50;;
78430;SDS011;67727;50.236;22.452;2024-03-22T07:08:41;58.00;;;30.70;;
78430;SDS011;67727;50.236;22.452;2024-03-22T07:11:08;72.20;;;38.70;;
78430;SDS011;67727;50.236;22.452;2024-03-22T07:13:35;69.90;;;34.40;;
78430;SDS011;67727;50.236;22.452;2024-03-22T07:16:03;70.10;;;34.20;;
78430;SDS011;67727;50.236;22.452;2024-03-22T07:18:30;73.90;;;35.70;;
78430;SDS011;67727;50.236;22.452;2024-03-22T07:20:56;67.30;;;35.70;;
78430;SDS011;67727;50.236;22.452;2024-03-22T07:23:27;76.50;;;37.20;;
78430;SDS011;67727;50.236;22.452;2024-03-22T07:25:54;74.90;;;36.60;;
78430;SDS011;67727;50.236;22.452;2024-03-22T07:28:21;64.70;;;36.30;;
78430;SDS011;67727;50.236;22.452;2024-03-22T07:30:48;61.60;;;33.50;;
78430;SDS011;67727;50.236;22.452;2024-03-22T07:33:15;59.60;;;31.10;;
78430;SDS011;67727;50.236;22.452;2024-03-22T07:35:44;58.90;;;32.80;;
78430;SDS011;67727;50.236;22.452;2024-03-22T07:38:11;65.40;;;33.40;;
78430;SDS011;67727;50.236;22.452;2024-03-22T07:40:38;60.90;;;33.20;;
78430;SDS011;67727;50.236;22.452;2024-03-22T07:43:04;70.70;;;33.50;;
78430;SDS011;67727;50.236;22.452;2024-03-22T07:45:34;65.10;;;34.40;;
78430;SDS011;67727;50.236;22.452;2024-03-22T07:48:02;61.60;;;33.90;;
78430;SDS011;67727;50.236;22.452;2024-03-22T07:50:29;70.90;;;34.90;;
78430;SDS011;67727;50.236;22.452;2024-03-22T07:52:56;81.10;;;41.30;;
78430;SDS011;67727;50.236;22.452;2024-03-22T07:55:23;77.30;;;38.00;;
78430;SDS011;67727;50.236;22.452;2024-03-22T07:57:50;67.30;;;35.70;;
78430;SDS011;67727;50.236;22.452;2024-03-22T08:00:17;66.90;;;36.00;;
78430;SDS011;67727;50.236;22.452;2024-03-22T08:02:44;65.40;;;36.70;;
78430;SDS011;67727;50.236;22.452;2024-03-22T08:05:11;73.90;;;38.30;;
78430;SDS011;67727;50.236;22.452;2024-03-22T08:07:38;70.70;;;35.60;;
78430;SDS011;67727;50.236;22.452;2024-03-22T08:10:05;77.30;;;39.70;;
78430;SDS011;67727;50.236;22.452;2024-03-22T08:12:32;79.80;;;40.40;;
78430;SDS011;67727;50.236;22.452;2024-03-22T08:14:58;78.80;;;39.90;;
78430;SDS011;67727;50.236;22.452;2024-03-22T08:17:25;75.40;;;39.50;;
78430;SDS011;67727;50.236;22.452;2024-03-22T08:19:52;77.00;;;38.10;;
78430;SDS011;67727;50.236;22.452;2024-03-22T08:22:19;71.10;;;34.90;;
78430;SDS011;67727;50.236;22.452;2024-03-22T08:24:46;65.20;;;35.10;;
78430;SDS011;67727;50.236;22.452;2024-03-22T08:27:13;73.00;;;36.90;;
78430;SDS011;67727;50.236;22.452;2024-03-22T08:29:40;68.50;;;36.60;;
78430;SDS011;67727;50.236;22.452;2024-03-22T08:32:07;70.80;;;41.20;;
78430;SDS011;67727;50.236;22.452;2024-03-22T08:34:33;60.90;;;34.10;;
78430;SDS011;67727;50.236;22.452;2024-03-22T08:37:00;61.60;;;33.70;;
78430;SDS011;67727;50.236;22.452;2024-03-22T08:39:27;63.80;;;32.70;;
78430;SDS011;67727;50.236;22.452;2024-03-22T08:41:53;55.90;;;31.10;;
78430;SDS011;67727;50.236;22.452;2024-03-22T08:44:21;55.60;;;31.60;;
78430;SDS011;67727;50.236;22.452;2024-03-22T08:46:48;56.10;;;31.40;;
78430;SDS011;67727;50.236;22.452;2024-03-22T08:49:16;57.60;;;31.90;;
78430;SDS011;67727;50.236;22.452;2024-03-22T08:51:45;50.30;;;28.30;;
78430;SDS011;67727;50.236;22.452;2024-03-22T08:54:12;53.20;;;27.60;;
78430;SDS011;67727;50.236;22.452;2024-03-22T08:56:39;52.90;;;28.00;;
78430;SDS011;67727;50.236;22.452;2024-03-22T09:01:33;51.10;;;27.70;;
78430;SDS011;67727;50.236;22.452;2024-03-22T09:04:02;50.10;;;27.10;;
78430;SDS011;67727;50.236;22.452;2024-03-22T09:06:29;46.80;;;26.00;;
78430;SDS011;67727;50.236;22.452;2024-03-22T09:08:56;40.40;;;22.70;;
78430;SDS011;67727;50.236;22.452;2024-03-22T09:11:24;46.70;;;26.50;;
78430;SDS011;67727;50.236;22.452;2024-03-22T09:13:52;38.00;;;22.70;;
78430;SDS011;67727;50.236;22.452;2024-03-22T09:16:23;37.00;;;24.30;;
78430;SDS011;67727;50.236;22.452;2024-03-22T09:18:50;39.40;;;22.30;;
78430;SDS011;67727;50.236;22.452;2024-03-22T09:21:18;40.70;;;22.80;;
78430;SDS011;67727;50.236;22.452;2024-03-22T09:23:45;36.60;;;21.50;;
78430;SDS011;67727;50.236;22.452;2024-03-22T09:26:13;43.20;;;22.10;;
78430;SDS011;67727;50.236;22.452;2024-03-22T09:28:40;36.50;;;22.20;;
78430;SDS011;67727;50.236;22.452;2024-03-22T09:31:08;38.90;;;21.30;;
78430;SDS011;67727;50.236;22.452;2024-03-22T09:33:35;35.90;;;21.10;;
78430;SDS011;67727;50.236;22.452;2024-03-22T09:36:03;34.30;;;21.30;;
78430;SDS011;67727;50.236;22.452;2024-03-22T09:38:30;31.60;;;18.60;;
78430;SDS011;67727;50.236;22.452;2024-03-22T09:40:56;34.30;;;20.40;;
78430;SDS011;67727;50.236;22.452;2024-03-22T09:43:23;36.10;;;23.10;;
78430;SDS011;67727;50.236;22.452;2024-03-22T09:45:54;37.50;;;22.20;;
78430;SDS011;67727;50.236;22.452;2024-03-22T09:48:22;37.80;;;22.30;;
78430;SDS011;67727;50.236;22.452;2024-03-22T09:50:49;40.30;;;23.90;;
78430;SDS011;67727;50.236;22.452;2024-03-22T09:53:18;40.00;;;22.00;;
78430;SDS011;67727;50.236;22.452;2024-03-22T09:55:48;43.60;;;24.10;;
78430;SDS011;67727;50.236;22.452;2024-03-22T09:58:16;36.50;;;21.20;;
78430;SDS011;67727;50.236;22.452;2024-03-22T10:00:46;36.80;;;22.20;;
78430;SDS011;67727;50.236;22.452;2024-03-22T10:03:13;38.70;;;22.50;;
78430;SDS011;67727;50.236;22.452;2024-03-22T10:05:40;40.70;;;23.10;;
78430;SDS011;67727;50.236;22.452;2024-03-22T10:08:07;35.20;;;20.30;;
78430;SDS011;67727;50.236;22.452;2024-03-22T10:10:34;34.80;;;21.20;;
78430;SDS011;67727;50.236;22.452;2024-03-22T10:13:01;40.60;;;23.30;;
78430;SDS011;67727;50.236;22.452;2024-03-22T10:15:30;39.20;;;21.60;;
78430;SDS011;67727;50.236;22.452;2024-03-22T10:17:57;36.30;;;21.50;;
78430;SDS011;67727;50.236;22.452;2024-03-22T10:20:25;38.10;;;23.40;;
78430;SDS011;67727;50.236;22.452;2024-03-22T10:22:55;40.50;;;23.10;;
78430;SDS011;67727;50.236;22.452;2024-03-22T10:25:27;38.70;;;21.10;;
78430;SDS011;67727;50.236;22.452;2024-03-22T10:27:55;36.60;;;22.60;;
78430;SDS011;67727;50.236;22.452;2024-03-22T10:30:23;41.40;;;25.50;;
78430;SDS011;67727;50.236;22.452;2024-03-22T10:32:51;42.00;;;23.10;;
78430;SDS011;67727;50.236;22.452;2024-03-22T10:35:18;39.20;;;23.30;;
78430;SDS011;67727;50.236;22.452;2024-03-22T10:37:45;35.80;;;21.00;;
78430;SDS011;67727;50.236;22.452;2024-03-22T10:40:12;41.30;;;23.30;;
78430;SDS011;67727;50.236;22.452;2024-03-22T10:42:41;40.00;;;21.80;;
78430;SDS011;67727;50.236;22.452;2024-03-22T10:45:08;36.60;;;21.90;;
78430;SDS011;67727;50.236;22.452;2024-03-22T10:47:37;40.10;;;21.90;;
78430;SDS011;67727;50.236;22.452;2024-03-22T10:50:05;42.60;;;23.80;;
78430;SDS011;67727;50.236;22.452;2024-03-22T10:52:34;41.30;;;22.70;;
78430;SDS011;67727;50.236;22.452;2024-03-22T10:55:06;41.60;;;23.00;;
78430;SDS011;67727;50.236;22.452;2024-03-22T10:57:37;42.30;;;25.50;;
78430;SDS011;67727;50.236;22.452;2024-03-22T11:00:08;44.30;;;23.80;;
78430;SDS011;67727;50.236;22.452;2024-03-22T11:02:38;44.70;;;24.10;;
78430;SDS011;67727;50.236;22.452;2024-03-22T11:05:18;39.80;;;23.00;;
78430;SDS011;67727;50.236;22.452;2024-03-22T11:07:45;37.90;;;24.10;;
78430;SDS011;67727;50.236;22.452;2024-03-22T11:10:12;41.50;;;22.30;;
78430;SDS011;67727;50.236;22.452;2024-03-22T11:12:39;44.10;;;23.90;;
78430;SDS011;67727;50.236;22.452;2024-03-22T11:15:10;43.30;;;24.00;;
78430;SDS011;67727;50.236;22.452;2024-03-22T11:17:38;38.00;;;21.70;;
78430;SDS011;67727;50.236;22.452;2024-03-22T11:20:05;37.40;;;22.70;;
78430;SDS011;67727;50.236;22.452;2024-03-22T11:22:32;39.40;;;23.40;;
78430;SDS011;67727;50.236;22.452;2024-03-22T11:24:59;49.10;;;27.40;;
78430;SDS011;67727;50.236;22.452;2024-03-22T11:27:25;54.30;;;28.20;;
78430;SDS011;67727;50.236;22.452;2024-03-22T11:29:53;50.30;;;27.70;;
78430;SDS011;67727;50.236;22.452;2024-03-22T11:32:21;41.00;;;23.60;;
78430;SDS011;67727;50.236;22.452;2024-03-22T11:34:49;50.70;;;28.30;;
78430;SDS011;67727;50.236;22.452;2024-03-22T11:37:16;47.10;;;27.40;;
78430;SDS011;67727;50.236;22.452;2024-03-22T11:39:43;42.50;;;23.90;;
78430;SDS011;67727;50.236;22.452;2024-03-22T11:42:10;43.30;;;25.20;;
78430;SDS011;67727;50.236;22.452;2024-03-22T11:44:37;47.60;;;27.80;;
78430;SDS011;67727;50.236;22.452;2024-03-22T11:47:06;50.60;;;29.00;;
78430;SDS011;67727;50.236;22.452;2024-03-22T11:49:33;40.30;;;23.40;;
78430;SDS011;67727;50.236;22.452;2024-03-22T11:52:01;37.60;;;23.10;;
78430;SDS011;67727;50.236;22.452;2024-03-22T11:54:28;49.20;;;26.70;;
78430;SDS011;67727;50.236;22.452;2024-03-22T11:56:57;38.80;;;23.00;;
78430;SDS011;67727;50.236;22.452;2024-03-22T11:59:24;39.00;;;24.00;;
78430;SDS011;67727;50.236;22.452;2024-03-22T12:01:51;36.00;;;21.90;;
78430;SDS011;67727;50.236;22.452;2024-03-22T12:04:17;34.90;;;21.10;;
78430;SDS011;67727;50.236;22.452;2024-03-22T12:06:44;35.80;;;22.70;;
78430;SDS011;67727;50.236;22.452;2024-03-22T12:09:12;39.20;;;22.00;;
78430;SDS011;67727;50.236;22.452;2024-03-22T12:11:40;39.70;;;22.10;;
78430;SDS011;67727;50.236;22.452;2024-03-22T12:14:07;44.80;;;26.80;;
78430;SDS011;67727;50.236;22.452;2024-03-22T12:16:33;44.40;;;26.30;;
78430;SDS011;67727;50.236;22.452;2024-03-22T12:19:00;50.90;;;33.40;;
78430;SDS011;67727;50.236;22.452;2024-03-22T12:21:27;55.80;;;38.20;;
78430;SDS011;67727;50.236;22.452;2024-03-22T12:23:53;44.20;;;27.70;;
78430;SDS011;67727;50.236;22.452;2024-03-22T12:26:20;53.80;;;32.00;;
78430;SDS011;67727;50.236;22.452;2024-03-22T12:28:47;44.30;;;28.00;;
78430;SDS011;67727;50.236;22.452;2024-03-22T12:31:16;53.20;;;31.70;;
78430;SDS011;67727;50.236;22.452;2024-03-22T12:33:44;47.80;;;27.80;;
78430;SDS011;67727;50.236;22.452;2024-03-22T12:36:11;42.50;;;26.80;;
78430;SDS011;67727;50.236;22.452;2024-03-22T12:38:37;46.70;;;27.20;;
78430;SDS011;67727;50.236;22.452;2024-03-22T12:41:04;48.80;;;27.80;;
78430;SDS011;67727;50.236;22.452;2024-03-22T12:43:32;37.70;;;23.00;;
78430;SDS011;67727;50.236;22.452;2024-03-22T12:45:59;38.40;;;22.80;;
78430;SDS011;67727;50.236;22.452;2024-03-22T12:48:26;46.10;;;28.50;;
78430;SDS011;67727;50.236;22.452;2024-03-22T12:50:52;68.30;;;37.50;;
78430;SDS011;67727;50.236;22.452;2024-03-22T12:53:19;74.50;;;38.90;;
78430;SDS011;67727;50.236;22.452;2024-03-22T12:55:46;88.90;;;49.30;;
78430;SDS011;67727;50.236;22.452;2024-03-22T12:58:13;123.90;;;60.70;;
78430;SDS011;67727;50.236;22.452;2024-03-22T13:00:40;87.50;;;47.10;;
78430;SDS011;67727;50.236;22.452;2024-03-22T13:03:07;72.20;;;34.10;;
78430;SDS011;67727;50.236;22.452;2024-03-22T13:05:33;73.90;;;37.90;;
78430;SDS011;67727;50.236;22.452;2024-03-22T13:08:00;55.80;;;30.10;;
78430;SDS011;67727;50.236;22.452;2024-03-22T13:10:27;63.80;;;30.70;;
78430;SDS011;67727;50.236;22.452;2024-03-22T13:12:54;53.60;;;29.50;;
78430;SDS011;67727;50.236;22.452;2024-03-22T13:15:21;50.90;;;26.70;;
78430;SDS011;67727;50.236;22.452;2024-03-22T13:17:47;59.60;;;32.50;;
78430;SDS011;67727;50.236;22.452;2024-03-22T13:20:14;43.10;;;25.70;;
78430;SDS011;67727;50.236;22.452;2024-03-22T13:22:41;41.60;;;23.80;;
78430;SDS011;67727;50.236;22.452;2024-03-22T13:25:08;41.90;;;24.30;;
78430;SDS011;67727;50.236;22.452;2024-03-22T13:27:37;58.90;;;27.30;;
78430;SDS011;67727;50.236;22.452;2024-03-22T13:30:07;56.60;;;23.20;;
78430;SDS011;67727;50.236;22.452;2024-03-22T13:32:38;49.30;;;24.50;;
78430;SDS011;67727;50.236;22.452;2024-03-22T13:35:05;48.00;;;24.30;;
78430;SDS011;67727;50.236;22.452;2024-03-22T13:37:33;35.70;;;22.20;;
78430;SDS011;67727;50.236;22.452;2024-03-22T13:40:00;33.60;;;22.10;;
78430;SDS011;67727;50.236;22.452;2024-03-22T13:42:27;41.60;;;24.60;;
78430;SDS011;67727;50.236;22.452;2024-03-22T13:44:53;39.50;;;25.50;;
78430;SDS011;67727;50.236;22.452;2024-03-22T13:47:20;35.40;;;23.80;;
78430;SDS011;67727;50.236;22.452;2024-03-22T13:49:47;44.70;;;24.20;;
78430;SDS011;67727;50.236;22.452;2024-03-22T13:52:14;40.50;;;24.60;;
78430;SDS011;67727;50.236;22.452;2024-03-22T13:54:41;70.90;;;33.70;;
78430;SDS011;67727;50.236;22.452;2024-03-22T13:57:07;54.40;;;26.80;;
78430;SDS011;67727;50.236;22.452;2024-03-22T13:59:34;48.40;;;28.50;;
78430;SDS011;67727;50.236;22.452;2024-03-22T14:02:02;57.10;;;28.90;;
78430;SDS011;67727;50.236;22.452;2024-03-22T14:04:29;51.60;;;27.80;;
78430;SDS011;67727;50.236;22.452;2024-03-22T14:06:56;50.50;;;29.50;;
78430;SDS011;67727;50.236;22.452;2024-03-22T14:09:22;55.30;;;31.20;;
78430;SDS011;67727;50.236;22.452;2024-03-22T14:11:49;52.20;;;29.00;;
78430;SDS011;67727;50.236;22.452;2024-03-22T14:14:16;48.60;;;28.30;;
78430;SDS011;67727;50.236;22.452;2024-03-22T14:16:43;46.00;;;26.30;;